sensor_id;sensor_type;location;lat;lon;timestamp;pressure;altitude;pressure_sealevel;temperature;humidity
75359;BME280;64046;51.978;5.934;2023-07-30T00:00:45;100783.53;;;21.66;92.65
75359;BME280;64046;51.978;5.934;2023-07-30T00:03:15;100774.84;;;21.54;92.59
75359;BME280;64046;51.978;5.934;2023-07-30T00:05:57;100783.69;;;21.74;91.38
75359;BME280;64046;51.978;5.934;2023-07-30T00:08:38;100781.31;;;21.71;91.05
75359;BME280;64046;51.978;5.934;2023-07-30T00:11:07;100785.19;;;21.48;92.28
75359;BME280;64046;51.978;5.934;2023-07-30T00:13:39;100792.06;;;21.50;92.46
75359;BME280;64046;51.978;5.934;2023-07-30T00:16:13;100785.38;;;21.66;91.37
75359;BME280;64046;51.978;5.934;2023-07-30T00:18:43;100785.91;;;21.50;92.41
75359;BME280;64046;51.978;5.934;2023-07-30T00:21:14;100780.72;;;21.48;92.04
75359;BME280;64046;51.978;5.934;2023-07-30T00:23:47;100781.31;;;21.62;91.42
75359;BME280;64046;51.978;5.934;2023-07-30T00:26:18;100780.56;;;21.50;91.12
75359;BME280;64046;51.978;5.934;2023-07-30T00:28:48;100788.31;;;21.53;90.73
75359;BME280;64046;51.978;5.934;2023-07-30T00:31:23;100784.53;;;21.65;89.79
75359;BME280;64046;51.978;5.934;2023-07-30T00:33:55;100785.47;;;21.44;90.45
75359;BME280;64046;51.978;5.934;2023-07-30T00:36:27;100781.81;;;21.36;90.57
75359;BME280;64046;51.978;5.934;2023-07-30T00:39:00;100777.75;;;21.32;90.80
75359;BME280;64046;51.978;5.934;2023-07-30T00:41:45;100780.00;;;21.46;89.79
75359;BME280;64046;51.978;5.934;2023-07-30T00:44:18;100785.47;;;21.35;89.74
75359;BME280;64046;51.978;5.934;2023-07-30T00:46:57;100787.03;;;21.47;89.01
75359;BME280;64046;51.978;5.934;2023-07-30T00:49:36;100789.00;;;21.45;88.53
75359;BME280;64046;51.978;5.934;2023-07-30T00:52:16;100788.13;;;21.44;88.79
75359;BME280;64046;51.978;5.934;2023-07-30T00:54:52;100788.13;;;21.44;88.43
75359;BME280;64046;51.978;5.934;2023-07-30T00:57:23;100780.41;;;21.32;88.51
75359;BME280;64046;51.978;5.934;2023-07-30T00:59:54;100790.94;;;21.33;88.17
75359;BME280;64046;51.978;5.934;2023-07-30T01:02:27;100786.72;;;21.40;87.83
75359;BME280;64046;51.978;5.934;2023-07-30T01:05:01;100794.88;;;21.39;88.15
75359;BME280;64046;51.978;5.934;2023-07-30T01:07:30;100798.94;;;21.23;88.26
75359;BME280;64046;51.978;5.934;2023-07-30T01:10:07;100793.75;;;21.32;88.16
75359;BME280;64046;51.978;5.934;2023-07-30T01:12:39;100791.91;;;21.22;88.67
75359;BME280;64046;51.978;5.934;2023-07-30T01:15:23;100802.19;;;21.37;87.92
75359;BME280;64046;51.978;5.934;2023-07-30T01:17:55;100804.81;;;21.27;88.81
75359;BME280;64046;51.978;5.934;2023-07-30T01:20:29;100798.81;;;21.25;88.86
75359;BME280;64046;51.978;5.934;2023-07-30T01:23:07;100809.47;;;21.25;88.63
75359;BME280;64046;51.978;5.934;2023-07-30T01:25:39;100806.78;;;21.15;89.39
75359;BME280;64046;51.978;5.934;2023-07-30T01:28:13;100813.66;;;21.18;89.28
75359;BME280;64046;51.978;5.934;2023-07-30T01:31:00;100814.78;;;21.15;89.75
75359;BME280;64046;51.978;5.934;2023-07-30T01:33:31;100817.81;;;21.01;90.63
75359;BME280;64046;51.978;5.934;2023-07-30T01:36:04;100815.84;;;21.03;90.42
75359;BME280;64046;51.978;5.934;2023-07-30T01:38:44;100816.00;;;21.01;90.96
75359;BME280;64046;51.978;5.934;2023-07-30T01:41:15;100823.13;;;20.91;91.02
75359;BME280;64046;51.978;5.934;2023-07-30T01:43:46;100824.78;;;20.82;91.48
75359;BME280;64046;51.978;5.934;2023-07-30T01:46:21;100828.91;;;20.96;90.96
75359;BME280;64046;51.978;5.934;2023-07-30T01:48:53;100827.44;;;20.82;91.94
75359;BME280;64046;51.978;5.934;2023-07-30T01:51:25;100836.56;;;20.89;91.82
75359;BME280;64046;51.978;5.934;2023-07-30T01:53:59;100833.50;;;20.94;91.23
75359;BME280;64046;51.978;5.934;2023-07-30T01:56:33;100831.88;;;20.72;92.46
75359;BME280;64046;51.978;5.934;2023-07-30T01:59:03;100825.56;;;20.73;92.22
75359;BME280;64046;51.978;5.934;2023-07-30T02:01:36;100828.28;;;20.83;92.05
75359;BME280;64046;51.978;5.934;2023-07-30T02:04:10;100827.56;;;20.81;92.10
75359;BME280;64046;51.978;5.934;2023-07-30T02:06:40;100828.78;;;20.67;92.39
75359;BME280;64046;51.978;5.934;2023-07-30T02:09:16;100832.75;;;20.82;92.12
75359;BME280;64046;51.978;5.934;2023-07-30T02:11:48;100831.91;;;20.82;91.80
75359;BME280;64046;51.978;5.934;2023-07-30T02:14:18;100824.38;;;20.66;92.60
75359;BME280;64046;51.978;5.934;2023-07-30T02:16:50;100827.25;;;20.74;92.52
75359;BME280;64046;51.978;5.934;2023-07-30T02:19:24;100813.94;;;20.74;92.67
75359;BME280;64046;51.978;5.934;2023-07-30T02:21:55;100820.25;;;20.73;92.44
75359;BME280;64046;51.978;5.934;2023-07-30T02:24:28;100819.41;;;20.72;92.22
75359;BME280;64046;51.978;5.934;2023-07-30T02:27:02;100817.91;;;20.58;93.05
75359;BME280;64046;51.978;5.934;2023-07-30T02:29:40;100815.31;;;20.68;92.98
75359;BME280;64046;51.978;5.934;2023-07-30T02:32:11;100810.47;;;20.52;93.80
75359;BME280;64046;51.978;5.934;2023-07-30T02:34:43;100808.69;;;20.63;93.38
75359;BME280;64046;51.978;5.934;2023-07-30T02:37:12;100807.34;;;20.47;94.32
75359;BME280;64046;51.978;5.934;2023-07-30T02:39:54;100792.78;;;20.72;93.03
75359;BME280;64046;51.978;5.934;2023-07-30T02:42:44;100805.25;;;20.72;92.83
75359;BME280;64046;51.978;5.934;2023-07-30T02:45:16;100796.75;;;20.57;93.78
75359;BME280;64046;51.978;5.934;2023-07-30T02:47:45;100800.03;;;20.39;94.54
75359;BME280;64046;51.978;5.934;2023-07-30T02:50:15;100805.22;;;20.41;94.86
75359;BME280;64046;51.978;5.934;2023-07-30T02:52:44;100806.50;;;20.47;94.83
75359;BME280;64046;51.978;5.934;2023-07-30T02:55:17;100810.13;;;20.67;94.30
75359;BME280;64046;51.978;5.934;2023-07-30T02:57:47;100804.03;;;20.55;94.73
75359;BME280;64046;51.978;5.934;2023-07-30T03:00:18;100810.06;;;20.57;95.31
75359;BME280;64046;51.978;5.934;2023-07-30T03:02:48;100808.25;;;20.57;95.37
75359;BME280;64046;51.978;5.934;2023-07-30T03:05:20;100796.41;;;20.71;95.27
75359;BME280;64046;51.978;5.934;2023-07-30T03:07:50;100808.47;;;20.76;95.72
75359;BME280;64046;51.978;5.934;2023-07-30T03:12:52;100801.59;;;20.73;95.78
75359;BME280;64046;51.978;5.934;2023-07-30T03:15:25;100810.72;;;20.70;96.30
75359;BME280;64046;51.978;5.934;2023-07-30T03:18:02;100805.63;;;20.67;96.93
75359;BME280;64046;51.978;5.934;2023-07-30T03:20:31;100808.53;;;20.64;96.75
75359;BME280;64046;51.978;5.934;2023-07-30T03:23:28;100815.44;;;20.98;94.68
75359;BME280;64046;51.978;5.934;2023-07-30T03:26:00;100818.50;;;20.93;95.87
75359;BME280;64046;51.978;5.934;2023-07-30T03:28:31;100812.28;;;20.83;96.35
75359;BME280;64046;51.978;5.934;2023-07-30T03:31:03;100815.81;;;20.93;96.29
75359;BME280;64046;51.978;5.934;2023-07-30T03:33:36;100809.81;;;20.91;97.04
75359;BME280;64046;51.978;5.934;2023-07-30T03:36:06;100813.44;;;20.90;97.67
75359;BME280;64046;51.978;5.934;2023-07-30T03:38:41;100814.25;;;20.81;97.83
75359;BME280;64046;51.978;5.934;2023-07-30T03:41:17;100808.41;;;20.97;97.35
75359;BME280;64046;51.978;5.934;2023-07-30T03:43:49;100821.56;;;20.88;98.12
75359;BME280;64046;51.978;5.934;2023-07-30T03:46:40;100812.56;;;20.80;98.86
75359;BME280;64046;51.978;5.934;2023-07-30T03:49:09;100813.25;;;20.82;98.45
75359;BME280;64046;51.978;5.934;2023-07-30T03:51:39;100813.84;;;20.85;98.72
75359;BME280;64046;51.978;5.934;2023-07-30T03:54:08;100816.50;;;20.85;99.04
75359;BME280;64046;51.978;5.934;2023-07-30T03:56:41;100823.97;;;21.01;98.96
75359;BME280;64046;51.978;5.934;2023-07-30T03:59:16;100823.03;;;21.02;98.72
75359;BME280;64046;51.978;5.934;2023-07-30T04:01:53;100828.91;;;20.96;99.41
75359;BME280;64046;51.978;5.934;2023-07-30T04:04:24;100831.00;;;21.02;99.45
75359;BME280;64046;51.978;5.934;2023-07-30T04:06:54;100831.81;;;20.93;100.00
75359;BME280;64046;51.978;5.934;2023-07-30T04:09:26;100829.59;;;20.98;99.95
75359;BME280;64046;51.978;5.934;2023-07-30T04:12:09;100824.25;;;20.98;99.71
75359;BME280;64046;51.978;5.934;2023-07-30T04:14:41;100829.72;;;20.97;100.00
75359;BME280;64046;51.978;5.934;2023-07-30T04:17:20;100826.50;;;21.03;99.96
75359;BME280;64046;51.978;5.934;2023-07-30T04:19:53;100822.16;;;20.92;100.00
75359;BME280;64046;51.978;5.934;2023-07-30T04:22:25;100833.31;;;20.86;100.00
75359;BME280;64046;51.978;5.934;2023-07-30T04:25:00;100832.13;;;20.69;100.00
75359;BME280;64046;51.978;5.934;2023-07-30T04:27:34;100824.50;;;20.85;100.00
75359;BME280;64046;51.978;5.934;2023-07-30T04:30:08;100831.91;;;20.82;100.00
75359;BME280;64046;51.978;5.934;2023-07-30T04:32:37;100826.88;;;20.57;100.00
75359;BME280;64046;51.978;5.934;2023-07-30T04:35:12;100829.94;;;20.74;100.00
75359;BME280;64046;51.978;5.934;2023-07-30T04:37:47;100834.84;;;20.79;100.00
75359;BME280;64046;51.978;5.934;2023-07-30T04:40:18;100824.88;;;20.71;100.00
75359;BME280;64046;51.978;5.934;2023-07-30T04:42:51;100840.34;;;20.87;100.00
75359;BME280;64046;51.978;5.934;2023-07-30T04:45:23;100835.25;;;20.74;100.00
75359;BME280;64046;51.978;5.934;2023-07-30T04:47:54;100845.22;;;20.82;100.00
75359;BME280;64046;51.978;5.934;2023-07-30T04:50:26;100852.97;;;20.95;100.00
75359;BME280;64046;51.978;5.934;2023-07-30T04:52:58;100856.31;;;20.87;100.00
75359;BME280;64046;51.978;5.934;2023-07-30T04:55:35;100856.78;;;21.02;100.00
75359;BME280;64046;51.978;5.934;2023-07-30T04:58:12;100854.03;;;21.13;100.00
75359;BME280;64046;51.978;5.934;2023-07-30T05:00:46;100859.06;;;21.06;100.00
75359;BME280;64046;51.978;5.934;2023-07-30T05:03:17;100859.88;;;20.97;100.00
75359;BME280;64046;51.978;5.934;2023-07-30T05:05:49;100861.97;;;20.94;100.00
75359;BME280;64046;51.978;5.934;2023-07-30T05:08:23;100857.19;;;20.97;100.00
75359;BME280;64046;51.978;5.934;2023-07-30T05:10:56;100854.16;;;21.12;100.00
75359;BME280;64046;51.978;5.934;2023-07-30T05:13:32;100855.84;;;21.13;100.00
75359;BME280;64046;51.978;5.934;2023-07-30T05:16:02;100857.78;;;21.01;100.00
75359;BME280;64046;51.978;5.934;2023-07-30T05:18:35;100863.13;;;21.01;100.00
75359;BME280;64046;51.978;5.934;2023-07-30T05:21:07;100861.16;;;21.03;100.00
75359;BME280;64046;51.978;5.934;2023-07-30T05:23:41;100857.97;;;21.09;100.00
75359;BME280;64046;51.978;5.934;2023-07-30T05:26:13;100866.50;;;21.13;100.00
75359;BME280;64046;51.978;5.934;2023-07-30T05:28:45;100865.16;;;21.28;100.00
75359;BME280;64046;51.978;5.934;2023-07-30T05:31:17;100863.75;;;21.24;100.00
75359;BME280;64046;51.978;5.934;2023-07-30T05:33:48;100867.38;;;21.23;100.00
75359;BME280;64046;51.978;5.934;2023-07-30T05:36:20;100866.22;;;21.16;100.00
75359;BME280;64046;51.978;5.934;2023-07-30T05:38:51;100866.97;;;21.18;100.00
75359;BME280;64046;51.978;5.934;2023-07-30T05:41:22;100868.97;;;21.35;100.00
75359;BME280;64046;51.978;5.934;2023-07-30T05:43:57;100858.72;;;21.40;100.00
75359;BME280;64046;51.978;5.934;2023-07-30T05:46:27;100867.81;;;21.28;100.00
75359;BME280;64046;51.978;5.934;2023-07-30T05:48:58;100866.56;;;21.32;100.00
75359;BME280;64046;51.978;5.934;2023-07-30T05:51:27;100869.78;;;21.36;100.00
75359;BME280;64046;51.978;5.934;2023-07-30T05:53:57;100865.88;;;21.40;100.00
75359;BME280;64046;51.978;5.934;2023-07-30T05:56:31;100870.56;;;21.57;100.00
75359;BME280;64046;51.978;5.934;2023-07-30T05:59:05;100868.03;;;21.66;100.00
75359;BME280;64046;51.978;5.934;2023-07-30T06:01:38;100870.56;;;21.67;100.00
75359;BME280;64046;51.978;5.934;2023-07-30T06:04:11;100876.63;;;21.59;100.00
75359;BME280;64046;51.978;5.934;2023-07-30T06:06:40;100876.47;;;21.61;100.00
75359;BME280;64046;51.978;5.934;2023-07-30T06:09:09;100872.84;;;21.62;100.00
75359;BME280;64046;51.978;5.934;2023-07-30T06:11:39;100880.28;;;21.68;100.00
75359;BME280;64046;51.978;5.934;2023-07-30T06:14:14;100872.69;;;21.83;100.00
75359;BME280;64046;51.978;5.934;2023-07-30T06:16:44;100877.88;;;21.65;100.00
75359;BME280;64046;51.978;5.934;2023-07-30T06:19:14;100872.69;;;21.73;100.00
75359;BME280;64046;51.978;5.934;2023-07-30T06:21:43;100858.50;;;21.73;100.00
75359;BME280;64046;51.978;5.934;2023-07-30T06:24:16;100861.31;;;21.71;100.00
75359;BME280;64046;51.978;5.934;2023-07-30T06:26:47;100869.31;;;21.81;100.00
75359;BME280;64046;51.978;5.934;2023-07-30T06:29:19;100861.31;;;21.91;100.00
75359;BME280;64046;51.978;5.934;2023-07-30T06:31:49;100869.19;;;21.83;100.00
75359;BME280;64046;51.978;5.934;2023-07-30T06:34:19;100871.13;;;21.81;100.00
75359;BME280;64046;51.978;5.934;2023-07-30T06:36:56;100871.28;;;21.99;100.00
75359;BME280;64046;51.978;5.934;2023-07-30T06:39:25;100877.72;;;21.86;100.00
75359;BME280;64046;51.978;5.934;2023-07-30T06:41:55;100873.13;;;21.88;100.00
75359;BME280;64046;51.978;5.934;2023-07-30T06:44:27;100880.97;;;22.00;100.00
75359;BME280;64046;51.978;5.934;2023-07-30T06:46:58;100868.91;;;21.86;100.00
75359;BME280;64046;51.978;5.934;2023-07-30T06:49:27;100872.25;;;21.88;100.00
75359;BME280;64046;51.978;5.934;2023-07-30T06:51:58;100874.94;;;21.98;100.00
75359;BME280;64046;51.978;5.934;2023-07-30T06:54:30;100880.97;;;22.09;100.00
75359;BME280;64046;51.978;5.934;2023-07-30T06:57:00;100870.03;;;22.03;100.00
75359;BME280;64046;51.978;5.934;2023-07-30T06:59:33;100874.19;;;22.25;100.00
75359;BME280;64046;51.978;5.934;2023-07-30T07:02:05;100880.09;;;22.28;100.00
75359;BME280;64046;51.978;5.934;2023-07-30T07:04:35;100878.28;;;22.19;100.00
75359;BME280;64046;51.978;5.934;2023-07-30T07:07:05;100881.09;;;22.27;100.00
75359;BME280;64046;51.978;5.934;2023-07-30T07:09:34;100874.06;;;22.26;100.00
75359;BME280;64046;51.978;5.934;2023-07-30T07:12:07;100878.56;;;22.36;100.00
75359;BME280;64046;51.978;5.934;2023-07-30T07:14:39;100884.28;;;22.51;100.00
75359;BME280;64046;51.978;5.934;2023-07-30T07:17:12;100894.13;;;22.60;100.00
75359;BME280;64046;51.978;5.934;2023-07-30T07:19:41;100878.81;;;22.52;100.00
75359;BME280;64046;51.978;5.934;2023-07-30T07:22:12;100887.34;;;22.75;100.00
75359;BME280;64046;51.978;5.934;2023-07-30T07:24:44;100883.16;;;22.63;100.00
75359;BME280;64046;51.978;5.934;2023-07-30T07:27:14;100882.69;;;22.68;100.00
75359;BME280;64046;51.978;5.934;2023-07-30T07:29:48;100880.34;;;22.92;99.98
75359;BME280;64046;51.978;5.934;2023-07-30T07:32:18;100885.69;;;22.92;100.00
75359;BME280;64046;51.978;5.934;2023-07-30T07:34:50;100884.13;;;22.99;99.19
75359;BME280;64046;51.978;5.934;2023-07-30T07:37:24;100886.38;;;23.14;98.16
75359;BME280;64046;51.978;5.934;2023-07-30T07:39:58;100893.00;;;23.00;98.63
75359;BME280;64046;51.978;5.934;2023-07-30T07:42:29;100889.44;;;23.09;98.41
75359;BME280;64046;51.978;5.934;2023-07-30T07:45:07;100894.97;;;23.36;96.25
75359;BME280;64046;51.978;5.934;2023-07-30T07:47:39;100895.13;;;23.34;95.75
75359;BME280;64046;51.978;5.934;2023-07-30T07:50:09;100903.75;;;23.46;93.17
75359;BME280;64046;51.978;5.934;2023-07-30T07:52:44;100903.13;;;23.34;92.15
75359;BME280;64046;51.978;5.934;2023-07-30T07:55:15;100900.94;;;23.20;92.27
75359;BME280;64046;51.978;5.934;2023-07-30T07:57:47;100900.88;;;23.29;91.84
75359;BME280;64046;51.978;5.934;2023-07-30T08:00:24;100900.75;;;23.31;91.32
75359;BME280;64046;51.978;5.934;2023-07-30T08:03:01;100910.06;;;23.27;91.25
75359;BME280;64046;51.978;5.934;2023-07-30T08:05:40;100909.09;;;23.18;91.48
75359;BME280;64046;51.978;5.934;2023-07-30T08:08:09;100903.75;;;23.18;91.28
75359;BME280;64046;51.978;5.934;2023-07-30T08:10:50;100904.66;;;23.37;90.45
75359;BME280;64046;51.978;5.934;2023-07-30T08:13:24;100908.59;;;23.32;90.86
75359;BME280;64046;51.978;5.934;2023-07-30T08:15:56;100907.31;;;23.37;89.56
75359;BME280;64046;51.978;5.934;2023-07-30T08:18:28;100918.22;;;23.25;89.57
75359;BME280;64046;51.978;5.934;2023-07-30T08:20:59;100907.31;;;23.37;89.46
75359;BME280;64046;51.978;5.934;2023-07-30T08:23:33;100911.78;;;23.46;89.22
75359;BME280;64046;51.978;5.934;2023-07-30T08:26:08;100910.34;;;23.52;88.63
75359;BME280;64046;51.978;5.934;2023-07-30T08:28:41;100899.13;;;23.66;87.62
75359;BME280;64046;51.978;5.934;2023-07-30T08:31:19;100897.84;;;23.88;86.58
75359;BME280;64046;51.978;5.934;2023-07-30T08:33:54;100896.19;;;23.87;86.67
75359;BME280;64046;51.978;5.934;2023-07-30T08:36:23;100898.75;;;23.79;86.19
75359;BME280;64046;51.978;5.934;2023-07-30T08:38:55;100896.38;;;23.76;85.88
75359;BME280;64046;51.978;5.934;2023-07-30T08:41:33;100894.78;;;23.83;86.13
75359;BME280;64046;51.978;5.934;2023-07-30T08:44:05;100907.81;;;23.96;85.40
75359;BME280;64046;51.978;5.934;2023-07-30T08:46:42;100893.66;;;24.04;84.55
75359;BME280;64046;51.978;5.934;2023-07-30T08:49:14;100905.88;;;23.88;83.87
75359;BME280;64046;51.978;5.934;2023-07-30T08:51:51;100906.75;;;23.89;84.21
75359;BME280;64046;51.978;5.934;2023-07-30T08:54:25;100917.28;;;23.90;84.14
75359;BME280;64046;51.978;5.934;2023-07-30T08:57:01;100911.63;;;23.93;84.76
75359;BME280;64046;51.978;5.934;2023-07-30T08:59:42;100906.88;;;24.05;84.29
75359;BME280;64046;51.978;5.934;2023-07-30T09:02:21;100901.91;;;24.10;82.94
75359;BME280;64046;51.978;5.934;2023-07-30T09:05:03;100911.75;;;24.10;81.47
75359;BME280;64046;51.978;5.934;2023-07-30T09:07:37;100915.38;;;24.00;82.20
75359;BME280;64046;51.978;5.934;2023-07-30T09:10:11;100923.47;;;23.91;80.79
75359;BME280;64046;51.978;5.934;2023-07-30T09:12:41;100919.84;;;23.82;80.38
75359;BME280;64046;51.978;5.934;2023-07-30T09:15:11;100924.38;;;23.81;79.44
75359;BME280;64046;51.978;5.934;2023-07-30T09:17:45;100916.50;;;23.98;78.85
75359;BME280;64046;51.978;5.934;2023-07-30T09:20:19;100916.97;;;23.93;78.83
75359;BME280;64046;51.978;5.934;2023-07-30T09:22:50;100917.59;;;23.87;80.11
75359;BME280;64046;51.978;5.934;2023-07-30T09:25:26;100923.88;;;23.96;80.03
75359;BME280;64046;51.978;5.934;2023-07-30T09:27:58;100916.75;;;24.05;79.44
75359;BME280;64046;51.978;5.934;2023-07-30T09:30:29;100924.63;;;24.06;79.00
75359;BME280;64046;51.978;5.934;2023-07-30T09:33:04;100918.00;;;24.18;77.44
75359;BME280;64046;51.978;5.934;2023-07-30T09:35:35;100921.63;;;23.91;77.92
75359;BME280;64046;51.978;5.934;2023-07-30T09:38:05;100918.94;;;23.91;77.97
75359;BME280;64046;51.978;5.934;2023-07-30T09:40:36;100919.34;;;24.14;76.46
75359;BME280;64046;51.978;5.934;2023-07-30T09:43:12;100919.00;;;24.35;76.14
75359;BME280;64046;51.978;5.934;2023-07-30T09:45:45;100921.47;;;24.55;75.55
75359;BME280;64046;51.978;5.934;2023-07-30T09:48:19;100923.50;;;24.79;74.85
75359;BME280;64046;51.978;5.934;2023-07-30T09:50:50;100925.66;;;25.02;74.15
75359;BME280;64046;51.978;5.934;2023-07-30T09:53:30;100926.38;;;25.12;72.18
75359;BME280;64046;51.978;5.934;2023-07-30T09:56:01;100934.28;;;25.22;71.26
75359;BME280;64046;51.978;5.934;2023-07-30T09:58:36;100918.78;;;25.42;68.80
75359;BME280;64046;51.978;5.934;2023-07-30T10:01:12;100933.47;;;25.30;69.03
75359;BME280;64046;51.978;5.934;2023-07-30T10:03:51;100923.56;;;25.22;68.75
75359;BME280;64046;51.978;5.934;2023-07-30T10:06:25;100934.41;;;25.12;68.97
75359;BME280;64046;51.978;5.934;2023-07-30T10:09:10;100942.50;;;25.20;68.44
75359;BME280;64046;51.978;5.934;2023-07-30T10:11:45;100938.03;;;25.03;68.65
75359;BME280;64046;51.978;5.934;2023-07-30T10:14:19;100941.00;;;24.92;68.83
75359;BME280;64046;51.978;5.934;2023-07-30T10:16:53;100951.88;;;24.64;70.79
75359;BME280;64046;51.978;5.934;2023-07-30T10:19:31;100952.00;;;24.36;71.36
75359;BME280;64046;51.978;5.934;2023-07-30T10:22:24;100956.06;;;24.22;72.07
75359;BME280;64046;51.978;5.934;2023-07-30T10:24:58;100953.91;;;24.08;73.31
75359;BME280;64046;51.978;5.934;2023-07-30T10:27:36;100957.81;;;24.13;72.55
75359;BME280;64046;51.978;5.934;2023-07-30T10:30:18;100956.03;;;24.04;72.82
75359;BME280;64046;51.978;5.934;2023-07-30T10:33:06;100947.94;;;24.32;71.60
75359;BME280;64046;51.978;5.934;2023-07-30T10:35:43;100955.34;;;24.38;71.41
75359;BME280;64046;51.978;5.934;2023-07-30T10:38:19;100951.28;;;24.52;69.84
75359;BME280;64046;51.978;5.934;2023-07-30T10:41:02;100956.00;;;24.58;68.57
75359;BME280;64046;51.978;5.934;2023-07-30T10:43:38;100949.41;;;24.52;70.08
75359;BME280;64046;51.978;5.934;2023-07-30T10:46:11;100949.75;;;24.49;70.08
75359;BME280;64046;51.978;5.934;2023-07-30T10:48:48;100946.84;;;24.61;69.41
75359;BME280;64046;51.978;5.934;2023-07-30T10:51:24;100948.44;;;24.72;68.34
75359;BME280;64046;51.978;5.934;2023-07-30T10:54:01;100960.34;;;24.77;68.01
75359;BME280;64046;51.978;5.934;2023-07-30T10:56:39;100962.91;;;24.87;66.95
75359;BME280;64046;51.978;5.934;2023-07-30T10:59:16;100964.28;;;24.91;65.61
75359;BME280;64046;51.978;5.934;2023-07-30T11:01:54;100977.53;;;24.66;65.21
75359;BME280;64046;51.978;5.934;2023-07-30T11:04:27;100979.00;;;24.61;65.29
75359;BME280;64046;51.978;5.934;2023-07-30T11:07:02;100977.47;;;24.84;65.73
75359;BME280;64046;51.978;5.934;2023-07-30T11:09:36;100973.97;;;24.84;66.09
75359;BME280;64046;51.978;5.934;2023-07-30T11:12:09;100966.47;;;25.22;66.04
75359;BME280;64046;51.978;5.934;2023-07-30T11:14:42;100960.94;;;25.24;66.68
75359;BME280;64046;51.978;5.934;2023-07-30T11:17:21;100964.06;;;25.45;65.82
75359;BME280;64046;51.978;5.934;2023-07-30T11:19:59;100968.44;;;25.46;65.13
75359;BME280;64046;51.978;5.934;2023-07-30T11:22:36;100967.59;;;25.46;65.19
75359;BME280;64046;51.978;5.934;2023-07-30T11:25:17;100975.16;;;25.50;65.28
75359;BME280;64046;51.978;5.934;2023-07-30T11:27:50;100971.13;;;25.46;66.12
75359;BME280;64046;51.978;5.934;2023-07-30T11:30:29;100977.22;;;25.73;65.38
75359;BME280;64046;51.978;5.934;2023-07-30T11:33:03;100985.97;;;25.83;64.23
75359;BME280;64046;51.978;5.934;2023-07-30T11:35:34;100971.88;;;25.65;65.04
75359;BME280;64046;51.978;5.934;2023-07-30T11:38:13;100972.75;;;25.90;63.57
75359;BME280;64046;51.978;5.934;2023-07-30T11:40:49;100975.25;;;25.91;62.35
75359;BME280;64046;51.978;5.934;2023-07-30T11:43:20;100982.50;;;25.91;62.30
75359;BME280;64046;51.978;5.934;2023-07-30T11:46:09;100982.06;;;26.12;60.97
75359;BME280;64046;51.978;5.934;2023-07-30T11:48:53;100983.69;;;25.97;62.10
75359;BME280;64046;51.978;5.934;2023-07-30T11:51:34;100984.38;;;26.07;60.81
75359;BME280;64046;51.978;5.934;2023-07-30T11:54:19;100986.91;;;26.08;58.05
75359;BME280;64046;51.978;5.934;2023-07-30T11:56:54;100991.53;;;25.90;57.13
75359;BME280;64046;51.978;5.934;2023-07-30T11:59:27;101000.94;;;25.78;57.92
75359;BME280;64046;51.978;5.934;2023-07-30T12:01:57;101004.41;;;25.70;57.80
75359;BME280;64046;51.978;5.934;2023-07-30T12:04:43;100998.59;;;25.91;56.63
75359;BME280;64046;51.978;5.934;2023-07-30T12:07:24;101013.69;;;25.84;56.71
75359;BME280;64046;51.978;5.934;2023-07-30T12:10:15;101019.56;;;25.87;57.71
75359;BME280;64046;51.978;5.934;2023-07-30T12:12:51;101017.38;;;25.83;57.36
75359;BME280;64046;51.978;5.934;2023-07-30T12:15:23;101014.94;;;25.63;58.00
75359;BME280;64046;51.978;5.934;2023-07-30T12:18:01;101016.38;;;25.84;58.54
75359;BME280;64046;51.978;5.934;2023-07-30T12:20:31;101014.88;;;25.89;58.52
75359;BME280;64046;51.978;5.934;2023-07-30T12:23:01;101011.03;;;25.92;57.82
75359;BME280;64046;51.978;5.934;2023-07-30T12:25:35;101005.31;;;25.95;57.50
75359;BME280;64046;51.978;5.934;2023-07-30T12:28:09;101004.97;;;25.90;56.26
75359;BME280;64046;51.978;5.934;2023-07-30T12:30:40;101010.97;;;25.76;56.36
75359;BME280;64046;51.978;5.934;2023-07-30T12:33:10;101019.31;;;25.64;56.72
75359;BME280;64046;51.978;5.934;2023-07-30T12:35:46;101012.78;;;25.67;56.21
75359;BME280;64046;51.978;5.934;2023-07-30T12:38:16;101003.78;;;25.42;56.14
75359;BME280;64046;51.978;5.934;2023-07-30T12:40:48;101003.34;;;25.54;55.13
75359;BME280;64046;51.978;5.934;2023-07-30T12:43:19;101003.00;;;25.49;55.73
75359;BME280;64046;51.978;5.934;2023-07-30T12:45:59;101003.59;;;25.78;54.67
75359;BME280;64046;51.978;5.934;2023-07-30T12:48:31;101006.28;;;25.78;55.20
75359;BME280;64046;51.978;5.934;2023-07-30T12:51:00;101007.41;;;25.67;54.55
75359;BME280;64046;51.978;5.934;2023-07-30T12:53:34;101008.81;;;25.79;53.10
75359;BME280;64046;51.978;5.934;2023-07-30T12:56:07;101007.78;;;25.72;52.32
75359;BME280;64046;51.978;5.934;2023-07-30T12:58:41;100999.00;;;25.53;52.47
75359;BME280;64046;51.978;5.934;2023-07-30T13:01:17;101008.47;;;25.82;52.16
75359;BME280;64046;51.978;5.934;2023-07-30T13:03:52;101007.47;;;25.91;51.32
75359;BME280;64046;51.978;5.934;2023-07-30T13:06:22;101001.59;;;25.80;50.24
75359;BME280;64046;51.978;5.934;2023-07-30T13:08:56;101009.06;;;26.02;50.21
75359;BME280;64046;51.978;5.934;2023-07-30T13:11:29;101011.25;;;26.07;49.54
75359;BME280;64046;51.978;5.934;2023-07-30T13:14:06;101021.28;;;25.97;49.74
75359;BME280;64046;51.978;5.934;2023-07-30T13:16:39;101015.69;;;25.90;49.31
75359;BME280;64046;51.978;5.934;2023-07-30T13:19:15;101021.06;;;25.90;49.27
75359;BME280;64046;51.978;5.934;2023-07-30T13:21:46;101016.16;;;25.77;48.93
75359;BME280;64046;51.978;5.934;2023-07-30T13:24:21;101024.13;;;25.52;49.01